Keauhou, Hawaii
Current Conditions -  °F | °C
As of 6:53 PM on Tuesday 25 Nov 2014 (Local Time) from PHKO Reporting Station
Few Clouds Few Clouds  
Wind Chill: 79°   Ceiling: Unl
Heat Index: 81°   Visibility: 10mi
Dew Point: 68°   Wind: 6mph
Humidity: 69%   Direction: 80°E
Pressure: 29.96"   Gusts: NA
Location:  19.56°N, 155.96°W
Report Text: PHKO 260453Z 08005KT 10SM FEW039 26/20 A2996 RMK AO2 SLP146 T02610200
Loading
Personal Weather Stations






























Interactive Weather Map New forecast layout! Learn more

10-Day Weather Forecast

Advertisements
Track Severe Weather on mobile